sensor_id;sensor_type;location;lat;lon;timestamp;temperature;humidity
54680;DHT22;40578;53.178;5.846;2023-11-21T00:02:15;10.80;99.90
54680;DHT22;40578;53.178;5.846;2023-11-21T00:04:40;10.80;99.90
54680;DHT22;40578;53.178;5.846;2023-11-21T00:07:06;10.80;99.90
54680;DHT22;40578;53.178;5.846;2023-11-21T00:09:32;10.90;99.90
54680;DHT22;40578;53.178;5.846;2023-11-21T00:11:58;11.10;99.90
54680;DHT22;40578;53.178;5.846;2023-11-21T00:14:25;10.90;99.90
54680;DHT22;40578;53.178;5.846;2023-11-21T00:16:51;10.90;99.90
54680;DHT22;40578;53.178;5.846;2023-11-21T00:19:16;10.80;99.90
54680;DHT22;40578;53.178;5.846;2023-11-21T00:21:43;10.90;99.90
54680;DHT22;40578;53.178;5.846;2023-11-21T00:24:11;10.90;99.90
54680;DHT22;40578;53.178;5.846;2023-11-21T00:26:40;10.90;99.90
54680;DHT22;40578;53.178;5.846;2023-11-21T00:29:05;11.00;99.90
54680;DHT22;40578;53.178;5.846;2023-11-21T00:31:34;10.90;99.90
54680;DHT22;40578;53.178;5.846;2023-11-21T00:34:02;10.90;99.90
54680;DHT22;40578;53.178;5.846;2023-11-21T00:36:29;11.00;99.90
54680;DHT22;40578;53.178;5.846;2023-11-21T00:38:54;10.90;99.90
54680;DHT22;40578;53.178;5.846;2023-11-21T00:41:21;11.00;99.90
54680;DHT22;40578;53.178;5.846;2023-11-21T00:43:47;10.90;99.90
54680;DHT22;40578;53.178;5.846;2023-11-21T00:46:12;11.00;99.90
54680;DHT22;40578;53.178;5.846;2023-11-21T00:48:39;11.00;99.90
54680;DHT22;40578;53.178;5.846;2023-11-21T00:51:04;11.10;99.90
54680;DHT22;40578;53.178;5.846;2023-11-21T00:53:31;11.00;99.90
54680;DHT22;40578;53.178;5.846;2023-11-21T00:55:59;11.00;99.90
54680;DHT22;40578;53.178;5.846;2023-11-21T00:58:25;11.00;99.90
54680;DHT22;40578;53.178;5.846;2023-11-21T01:00:50;11.00;99.90
54680;DHT22;40578;53.178;5.846;2023-11-21T01:03:16;10.90;99.90
54680;DHT22;40578;53.178;5.846;2023-11-21T01:05:42;11.00;99.90
54680;DHT22;40578;53.178;5.846;2023-11-21T01:08:07;11.00;99.90
54680;DHT22;40578;53.178;5.846;2023-11-21T01:10:33;11.00;99.90
54680;DHT22;40578;53.178;5.846;2023-11-21T01:12:59;11.00;99.90
54680;DHT22;40578;53.178;5.846;2023-11-21T01:15:25;10.90;99.90
54680;DHT22;40578;53.178;5.846;2023-11-21T01:17:52;11.00;99.90
54680;DHT22;40578;53.178;5.846;2023-11-21T01:20:18;10.90;99.90
54680;DHT22;40578;53.178;5.846;2023-11-21T01:22:44;10.90;99.90
54680;DHT22;40578;53.178;5.846;2023-11-21T01:25:10;12.20;99.90
54680;DHT22;40578;53.178;5.846;2023-11-21T01:27:36;10.90;99.90
54680;DHT22;40578;53.178;5.846;2023-11-21T01:30:05;11.00;99.90
54680;DHT22;40578;53.178;5.846;2023-11-21T01:32:33;11.00;99.90
54680;DHT22;40578;53.178;5.846;2023-11-21T01:35:00;11.00;99.90
54680;DHT22;40578;53.178;5.846;2023-11-21T01:37:25;11.00;99.90
54680;DHT22;40578;53.178;5.846;2023-11-21T01:39:54;11.00;99.90
54680;DHT22;40578;53.178;5.846;2023-11-21T01:42:21;11.00;99.90
54680;DHT22;40578;53.178;5.846;2023-11-21T01:44:46;11.00;99.90
54680;DHT22;40578;53.178;5.846;2023-11-21T01:47:13;11.10;99.90
54680;DHT22;40578;53.178;5.846;2023-11-21T01:49:39;11.10;99.90
54680;DHT22;40578;53.178;5.846;2023-11-21T01:52:05;11.20;99.90
54680;DHT22;40578;53.178;5.846;2023-11-21T01:54:32;11.20;99.90
54680;DHT22;40578;53.178;5.846;2023-11-21T01:56:59;11.20;99.90
54680;DHT22;40578;53.178;5.846;2023-11-21T01:59:37;11.20;99.90
54680;DHT22;40578;53.178;5.846;2023-11-21T02:02:04;11.20;99.90
54680;DHT22;40578;53.178;5.846;2023-11-21T02:04:32;11.30;99.90
54680;DHT22;40578;53.178;5.846;2023-11-21T02:06:58;11.30;99.90
54680;DHT22;40578;53.178;5.846;2023-11-21T02:09:27;11.40;99.90
54680;DHT22;40578;53.178;5.846;2023-11-21T02:11:55;11.40;99.90
54680;DHT22;40578;53.178;5.846;2023-11-21T02:14:21;11.40;99.90
54680;DHT22;40578;53.178;5.846;2023-11-21T02:16:50;11.50;99.90
54680;DHT22;40578;53.178;5.846;2023-11-21T02:19:19;11.50;99.90
54680;DHT22;40578;53.178;5.846;2023-11-21T02:21:50;11.80;99.90
54680;DHT22;40578;53.178;5.846;2023-11-21T02:24:21;11.50;99.90
54680;DHT22;40578;53.178;5.846;2023-11-21T02:26:50;11.50;99.90
54680;DHT22;40578;53.178;5.846;2023-11-21T02:29:20;11.50;99.90
54680;DHT22;40578;53.178;5.846;2023-11-21T02:31:54;11.60;99.90
54680;DHT22;40578;53.178;5.846;2023-11-21T02:34:21;11.60;99.90
54680;DHT22;40578;53.178;5.846;2023-11-21T02:36:47;11.60;99.90
54680;DHT22;40578;53.178;5.846;2023-11-21T02:39:15;11.60;99.90
54680;DHT22;40578;53.178;5.846;2023-11-21T02:41:42;11.60;99.90
54680;DHT22;40578;53.178;5.846;2023-11-21T02:44:08;11.70;99.90
54680;DHT22;40578;53.178;5.846;2023-11-21T02:46:34;11.60;99.90
54680;DHT22;40578;53.178;5.846;2023-11-21T02:49:01;11.70;99.90
54680;DHT22;40578;53.178;5.846;2023-11-21T02:51:27;11.60;99.90
54680;DHT22;40578;53.178;5.846;2023-11-21T02:53:53;11.70;99.90
54680;DHT22;40578;53.178;5.846;2023-11-21T02:56:19;11.60;99.90
54680;DHT22;40578;53.178;5.846;2023-11-21T02:58:45;11.90;99.90
54680;DHT22;40578;53.178;5.846;2023-11-21T03:01:11;11.70;99.90
54680;DHT22;40578;53.178;5.846;2023-11-21T03:03:38;11.70;99.90
54680;DHT22;40578;53.178;5.846;2023-11-21T03:06:06;11.70;99.90
54680;DHT22;40578;53.178;5.846;2023-11-21T03:08:32;11.70;99.90
54680;DHT22;40578;53.178;5.846;2023-11-21T03:10:58;11.90;99.90
54680;DHT22;40578;53.178;5.846;2023-11-21T03:13:24;11.80;99.90
54680;DHT22;40578;53.178;5.846;2023-11-21T03:15:49;11.80;99.90
54680;DHT22;40578;53.178;5.846;2023-11-21T03:18:15;11.80;99.90
54680;DHT22;40578;53.178;5.846;2023-11-21T03:20:40;12.00;99.90
54680;DHT22;40578;53.178;5.846;2023-11-21T03:23:06;11.70;99.90
54680;DHT22;40578;53.178;5.846;2023-11-21T03:25:32;11.90;99.90
54680;DHT22;40578;53.178;5.846;2023-11-21T03:27:58;11.80;99.90
54680;DHT22;40578;53.178;5.846;2023-11-21T03:30:23;11.80;99.90
54680;DHT22;40578;53.178;5.846;2023-11-21T03:32:49;12.00;99.90
54680;DHT22;40578;53.178;5.846;2023-11-21T03:35:15;11.70;99.90
54680;DHT22;40578;53.178;5.846;2023-11-21T03:37:41;11.80;99.90
54680;DHT22;40578;53.178;5.846;2023-11-21T03:40:07;11.70;99.90
54680;DHT22;40578;53.178;5.846;2023-11-21T03:42:38;11.80;99.90
54680;DHT22;40578;53.178;5.846;2023-11-21T03:45:05;11.70;99.90
54680;DHT22;40578;53.178;5.846;2023-11-21T03:47:31;11.70;99.90
54680;DHT22;40578;53.178;5.846;2023-11-21T03:49:57;11.70;99.90
54680;DHT22;40578;53.178;5.846;2023-11-21T03:52:22;11.70;99.90
54680;DHT22;40578;53.178;5.846;2023-11-21T03:54:48;11.70;99.90
54680;DHT22;40578;53.178;5.846;2023-11-21T03:57:14;11.60;99.90
54680;DHT22;40578;53.178;5.846;2023-11-21T03:59:43;11.60;99.90
54680;DHT22;40578;53.178;5.846;2023-11-21T04:02:09;11.60;99.90
54680;DHT22;40578;53.178;5.846;2023-11-21T04:04:35;11.60;99.90
54680;DHT22;40578;53.178;5.846;2023-11-21T04:07:04;11.60;99.90
54680;DHT22;40578;53.178;5.846;2023-11-21T04:09:30;11.60;99.90
54680;DHT22;40578;53.178;5.846;2023-11-21T04:11:56;11.50;99.90
54680;DHT22;40578;53.178;5.846;2023-11-21T04:14:22;11.50;99.90
54680;DHT22;40578;53.178;5.846;2023-11-21T04:16:48;11.50;99.90
54680;DHT22;40578;53.178;5.846;2023-11-21T04:19:14;11.80;99.90
54680;DHT22;40578;53.178;5.846;2023-11-21T04:21:43;11.40;99.90
54680;DHT22;40578;53.178;5.846;2023-11-21T04:24:09;11.40;99.90
54680;DHT22;40578;53.178;5.846;2023-11-21T04:26:35;11.40;99.90
54680;DHT22;40578;53.178;5.846;2023-11-21T04:29:00;11.30;99.90
54680;DHT22;40578;53.178;5.846;2023-11-21T04:31:26;12.00;99.90
54680;DHT22;40578;53.178;5.846;2023-11-21T04:33:52;11.30;99.90
54680;DHT22;40578;53.178;5.846;2023-11-21T04:36:17;11.20;99.90
54680;DHT22;40578;53.178;5.846;2023-11-21T04:38:44;11.30;99.90
54680;DHT22;40578;53.178;5.846;2023-11-21T04:41:10;11.20;99.90
54680;DHT22;40578;53.178;5.846;2023-11-21T04:43:35;11.20;99.90
54680;DHT22;40578;53.178;5.846;2023-11-21T04:46:01;11.20;99.90
54680;DHT22;40578;53.178;5.846;2023-11-21T04:48:27;11.20;99.90
54680;DHT22;40578;53.178;5.846;2023-11-21T04:50:53;11.20;99.90
54680;DHT22;40578;53.178;5.846;2023-11-21T04:53:18;11.20;99.90
54680;DHT22;40578;53.178;5.846;2023-11-21T04:55:45;11.50;99.90
54680;DHT22;40578;53.178;5.846;2023-11-21T04:58:11;11.10;99.90
54680;DHT22;40578;53.178;5.846;2023-11-21T05:00:37;11.20;99.90
54680;DHT22;40578;53.178;5.846;2023-11-21T05:03:03;11.20;99.90
54680;DHT22;40578;53.178;5.846;2023-11-21T05:05:30;11.20;99.90
54680;DHT22;40578;53.178;5.846;2023-11-21T05:07:56;11.20;99.90
54680;DHT22;40578;53.178;5.846;2023-11-21T05:10:21;11.10;99.90
54680;DHT22;40578;53.178;5.846;2023-11-21T05:12:49;11.10;99.90
54680;DHT22;40578;53.178;5.846;2023-11-21T05:15:16;11.00;99.90
54680;DHT22;40578;53.178;5.846;2023-11-21T05:17:44;11.00;99.90
54680;DHT22;40578;53.178;5.846;2023-11-21T05:20:11;11.10;99.90
54680;DHT22;40578;53.178;5.846;2023-11-21T05:22:40;11.00;99.90
54680;DHT22;40578;53.178;5.846;2023-11-21T05:25:07;11.60;99.90
54680;DHT22;40578;53.178;5.846;2023-11-21T05:27:34;10.90;99.90
54680;DHT22;40578;53.178;5.846;2023-11-21T05:30:04;10.90;99.90
54680;DHT22;40578;53.178;5.846;2023-11-21T05:32:38;10.80;99.90
54680;DHT22;40578;53.178;5.846;2023-11-21T05:35:04;10.80;99.90
54680;DHT22;40578;53.178;5.846;2023-11-21T05:37:35;10.80;99.90
54680;DHT22;40578;53.178;5.846;2023-11-21T05:40:01;10.80;99.90
54680;DHT22;40578;53.178;5.846;2023-11-21T05:42:32;10.70;99.90
54680;DHT22;40578;53.178;5.846;2023-11-21T05:44:58;10.70;99.90
54680;DHT22;40578;53.178;5.846;2023-11-21T05:47:44;10.60;99.90
54680;DHT22;40578;53.178;5.846;2023-11-21T05:50:12;10.60;99.90
54680;DHT22;40578;53.178;5.846;2023-11-21T05:52:41;10.60;99.90
54680;DHT22;40578;53.178;5.846;2023-11-21T05:55:06;10.60;99.90
54680;DHT22;40578;53.178;5.846;2023-11-21T05:57:33;10.60;99.90
54680;DHT22;40578;53.178;5.846;2023-11-21T06:00:03;10.80;99.90
54680;DHT22;40578;53.178;5.846;2023-11-21T06:02:35;10.60;99.90
54680;DHT22;40578;53.178;5.846;2023-11-21T06:05:01;10.60;99.90
54680;DHT22;40578;53.178;5.846;2023-11-21T06:07:26;10.50;99.90
54680;DHT22;40578;53.178;5.846;2023-11-21T06:09:52;10.60;99.90
54680;DHT22;40578;53.178;5.846;2023-11-21T06:12:17;10.80;99.90
54680;DHT22;40578;53.178;5.846;2023-11-21T06:14:45;10.60;99.90
54680;DHT22;40578;53.178;5.846;2023-11-21T06:17:11;10.60;99.90
54680;DHT22;40578;53.178;5.846;2023-11-21T06:19:37;10.60;99.90
54680;DHT22;40578;53.178;5.846;2023-11-21T06:22:02;10.50;99.90
54680;DHT22;40578;53.178;5.846;2023-11-21T06:24:28;10.50;99.90
54680;DHT22;40578;53.178;5.846;2023-11-21T06:26:54;10.60;99.90
54680;DHT22;40578;53.178;5.846;2023-11-21T06:29:19;10.60;99.90
54680;DHT22;40578;53.178;5.846;2023-11-21T06:31:45;10.60;99.90
54680;DHT22;40578;53.178;5.846;2023-11-21T06:34:11;10.50;99.90
54680;DHT22;40578;53.178;5.846;2023-11-21T06:36:37;10.50;99.90
54680;DHT22;40578;53.178;5.846;2023-11-21T06:39:03;10.50;99.90
54680;DHT22;40578;53.178;5.846;2023-11-21T06:41:34;10.50;99.90
54680;DHT22;40578;53.178;5.846;2023-11-21T06:44:00;10.50;99.90
54680;DHT22;40578;53.178;5.846;2023-11-21T06:46:25;10.50;99.90
54680;DHT22;40578;53.178;5.846;2023-11-21T06:48:52;10.60;99.90
54680;DHT22;40578;53.178;5.846;2023-11-21T06:51:18;10.50;99.90
54680;DHT22;40578;53.178;5.846;2023-11-21T06:53:43;10.50;99.90
54680;DHT22;40578;53.178;5.846;2023-11-21T06:56:19;10.50;99.90
54680;DHT22;40578;53.178;5.846;2023-11-21T06:58:45;10.50;99.90
54680;DHT22;40578;53.178;5.846;2023-11-21T07:01:19;10.50;99.90
54680;DHT22;40578;53.178;5.846;2023-11-21T07:03:45;10.40;99.90
54680;DHT22;40578;53.178;5.846;2023-11-21T07:06:10;10.50;99.90
54680;DHT22;40578;53.178;5.846;2023-11-21T07:08:37;10.50;99.90
54680;DHT22;40578;53.178;5.846;2023-11-21T07:11:04;10.40;99.90
54680;DHT22;40578;53.178;5.846;2023-11-21T07:13:30;10.40;99.90
54680;DHT22;40578;53.178;5.846;2023-11-21T07:15:56;10.40;99.90
54680;DHT22;40578;53.178;5.846;2023-11-21T07:18:21;10.30;99.90
54680;DHT22;40578;53.178;5.846;2023-11-21T07:20:48;10.40;99.90
54680;DHT22;40578;53.178;5.846;2023-11-21T07:23:13;10.30;99.90
54680;DHT22;40578;53.178;5.846;2023-11-21T07:25:41;10.30;99.90
54680;DHT22;40578;53.178;5.846;2023-11-21T07:28:08;10.30;99.90
54680;DHT22;40578;53.178;5.846;2023-11-21T07:30:34;10.20;99.90
54680;DHT22;40578;53.178;5.846;2023-11-21T07:32:59;10.20;99.90
54680;DHT22;40578;53.178;5.846;2023-11-21T07:35:25;10.10;99.90
54680;DHT22;40578;53.178;5.846;2023-11-21T07:37:50;10.20;99.90
54680;DHT22;40578;53.178;5.846;2023-11-21T07:40:16;10.10;99.90
54680;DHT22;40578;53.178;5.846;2023-11-21T07:42:42;10.10;99.90
54680;DHT22;40578;53.178;5.846;2023-11-21T07:45:08;10.10;99.90
54680;DHT22;40578;53.178;5.846;2023-11-21T07:47:34;10.10;99.90
54680;DHT22;40578;53.178;5.846;2023-11-21T07:50:03;10.00;99.90
54680;DHT22;40578;53.178;5.846;2023-11-21T07:52:29;10.10;99.90
54680;DHT22;40578;53.178;5.846;2023-11-21T07:54:54;10.40;99.90
54680;DHT22;40578;53.178;5.846;2023-11-21T07:57:20;10.00;99.90
54680;DHT22;40578;53.178;5.846;2023-11-21T07:59:45;10.00;99.90
54680;DHT22;40578;53.178;5.846;2023-11-21T08:02:11;10.00;99.90
54680;DHT22;40578;53.178;5.846;2023-11-21T08:04:37;10.00;99.90
54680;DHT22;40578;53.178;5.846;2023-11-21T08:07:03;9.90;99.90
54680;DHT22;40578;53.178;5.846;2023-11-21T08:09:29;9.90;99.90
54680;DHT22;40578;53.178;5.846;2023-11-21T08:11:55;10.10;99.90
54680;DHT22;40578;53.178;5.846;2023-11-21T08:14:20;9.90;99.90
54680;DHT22;40578;53.178;5.846;2023-11-21T08:16:46;9.90;99.90
54680;DHT22;40578;53.178;5.846;2023-11-21T08:19:12;9.80;99.90
54680;DHT22;40578;53.178;5.846;2023-11-21T08:21:38;9.80;99.90
54680;DHT22;40578;53.178;5.846;2023-11-21T08:24:07;9.90;99.90
54680;DHT22;40578;53.178;5.846;2023-11-21T08:26:36;9.80;99.90
54680;DHT22;40578;53.178;5.846;2023-11-21T08:29:02;9.80;99.90
54680;DHT22;40578;53.178;5.846;2023-11-21T08:31:28;9.80;99.90
54680;DHT22;40578;53.178;5.846;2023-11-21T08:33:54;9.80;99.90
54680;DHT22;40578;53.178;5.846;2023-11-21T08:36:21;9.80;99.90
54680;DHT22;40578;53.178;5.846;2023-11-21T08:38:48;9.80;99.90
54680;DHT22;40578;53.178;5.846;2023-11-21T08:41:14;9.80;99.90
54680;DHT22;40578;53.178;5.846;2023-11-21T08:43:41;9.80;99.90
54680;DHT22;40578;53.178;5.846;2023-11-21T08:46:07;9.80;99.90
54680;DHT22;40578;53.178;5.846;2023-11-21T08:48:36;10.00;99.90
54680;DHT22;40578;53.178;5.846;2023-11-21T08:51:03;9.80;99.90
54680;DHT22;40578;53.178;5.846;2023-11-21T08:53:29;9.80;99.90
54680;DHT22;40578;53.178;5.846;2023-11-21T08:55:56;9.80;99.90
54680;DHT22;40578;53.178;5.846;2023-11-21T08:58:22;9.80;99.90
54680;DHT22;40578;53.178;5.846;2023-11-21T09:00:48;9.80;99.90
54680;DHT22;40578;53.178;5.846;2023-11-21T09:03:13;9.80;99.90
54680;DHT22;40578;53.178;5.846;2023-11-21T09:05:39;9.80;99.90
54680;DHT22;40578;53.178;5.846;2023-11-21T09:08:05;9.80;99.90
54680;DHT22;40578;53.178;5.846;2023-11-21T09:10:33;9.80;99.90
54680;DHT22;40578;53.178;5.846;2023-11-21T09:13:01;9.90;99.90
54680;DHT22;40578;53.178;5.846;2023-11-21T09:15:27;9.80;99.90
54680;DHT22;40578;53.178;5.846;2023-11-21T09:17:53;9.90;99.90
54680;DHT22;40578;53.178;5.846;2023-11-21T09:20:18;9.80;99.90
54680;DHT22;40578;53.178;5.846;2023-11-21T09:22:48;9.80;99.90
54680;DHT22;40578;53.178;5.846;2023-11-21T09:25:14;9.80;99.90
54680;DHT22;40578;53.178;5.846;2023-11-21T09:27:40;9.80;99.90
54680;DHT22;40578;53.178;5.846;2023-11-21T09:30:07;9.80;99.90
54680;DHT22;40578;53.178;5.846;2023-11-21T09:32:37;9.80;99.90
54680;DHT22;40578;53.178;5.846;2023-11-21T09:35:04;10.20;99.90
54680;DHT22;40578;53.178;5.846;2023-11-21T09:37:31;9.90;99.90
54680;DHT22;40578;53.178;5.846;2023-11-21T09:39:57;10.00;99.90
54680;DHT22;40578;53.178;5.846;2023-11-21T09:42:30;9.90;99.90
54680;DHT22;40578;53.178;5.846;2023-11-21T09:45:18;9.90;99.90
54680;DHT22;40578;53.178;5.846;2023-11-21T09:47:47;10.00;99.90
54680;DHT22;40578;53.178;5.846;2023-11-21T09:50:17;10.00;99.90
54680;DHT22;40578;53.178;5.846;2023-11-21T09:53:02;10.10;99.90
54680;DHT22;40578;53.178;5.846;2023-11-21T09:55:30;10.10;99.90
54680;DHT22;40578;53.178;5.846;2023-11-21T09:58:02;10.20;99.90
54680;DHT22;40578;53.178;5.846;2023-11-21T10:00:29;10.20;99.90
54680;DHT22;40578;53.178;5.846;2023-11-21T10:02:58;10.10;99.90
54680;DHT22;40578;53.178;5.846;2023-11-21T10:05:24;10.20;99.90
54680;DHT22;40578;53.178;5.846;2023-11-21T10:07:50;10.10;99.90
54680;DHT22;40578;53.178;5.846;2023-11-21T10:10:19;10.20;99.90
54680;DHT22;40578;53.178;5.846;2023-11-21T10:12:55;10.60;99.90
54680;DHT22;40578;53.178;5.846;2023-11-21T10:15:22;10.00;99.90
54680;DHT22;40578;53.178;5.846;2023-11-21T10:17:52;10.00;99.90
54680;DHT22;40578;53.178;5.846;2023-11-21T10:20:19;10.40;99.90
54680;DHT22;40578;53.178;5.846;2023-11-21T10:22:45;10.70;99.90
54680;DHT22;40578;53.178;5.846;2023-11-21T10:25:11;10.00;99.90
54680;DHT22;40578;53.178;5.846;2023-11-21T10:27:40;10.00;99.90
54680;DHT22;40578;53.178;5.846;2023-11-21T10:30:10;10.00;99.90
54680;DHT22;40578;53.178;5.846;2023-11-21T10:32:41;10.00;99.90
54680;DHT22;40578;53.178;5.846;2023-11-21T10:35:08;10.00;99.90
54680;DHT22;40578;53.178;5.846;2023-11-21T10:37:38;10.00;99.90
54680;DHT22;40578;53.178;5.846;2023-11-21T10:40:12;10.00;99.90
54680;DHT22;40578;53.178;5.846;2023-11-21T10:42:41;10.00;99.90
54680;DHT22;40578;53.178;5.846;2023-11-21T10:45:10;9.90;99.90
54680;DHT22;40578;53.178;5.846;2023-11-21T10:47:42;9.90;99.90
54680;DHT22;40578;53.178;5.846;2023-11-21T10:50:08;9.90;99.90
54680;DHT22;40578;53.178;5.846;2023-11-21T10:52:39;9.90;99.90
54680;DHT22;40578;53.178;5.846;2023-11-21T10:55:20;9.80;99.90
54680;DHT22;40578;53.178;5.846;2023-11-21T10:57:53;9.90;99.90
54680;DHT22;40578;53.178;5.846;2023-11-21T11:00:19;9.70;99.90
54680;DHT22;40578;53.178;5.846;2023-11-21T11:02:50;9.60;99.90
54680;DHT22;40578;53.178;5.846;2023-11-21T11:05:19;9.50;99.90
54680;DHT22;40578;53.178;5.846;2023-11-21T11:07:50;9.60;99.90
54680;DHT22;40578;53.178;5.846;2023-11-21T11:10:21;9.60;99.90
54680;DHT22;40578;53.178;5.846;2023-11-21T11:12:48;9.60;99.90
54680;DHT22;40578;53.178;5.846;2023-11-21T11:15:16;9.70;99.90
54680;DHT22;40578;53.178;5.846;2023-11-21T11:17:42;9.70;99.90
54680;DHT22;40578;53.178;5.846;2023-11-21T11:20:12;9.70;99.90
54680;DHT22;40578;53.178;5.846;2023-11-21T11:22:47;9.80;99.90
54680;DHT22;40578;53.178;5.846;2023-11-21T11:33:56;9.70;99.90
54680;DHT22;40578;53.178;5.846;2023-11-21T11:36:32;9.70;99.90
54680;DHT22;40578;53.178;5.846;2023-11-21T11:38:59;9.60;99.90
54680;DHT22;40578;53.178;5.846;2023-11-21T11:41:29;9.60;99.90
54680;DHT22;40578;53.178;5.846;2023-11-21T11:43:58;9.50;99.90
54680;DHT22;40578;53.178;5.846;2023-11-21T11:46:42;9.50;99.90
54680;DHT22;40578;53.178;5.846;2023-11-21T11:49:29;9.60;99.90
54680;DHT22;40578;53.178;5.846;2023-11-21T11:55:00;9.60;99.90
54680;DHT22;40578;53.178;5.846;2023-11-21T11:57:30;10.10;99.90
54680;DHT22;40578;53.178;5.846;2023-11-21T12:00:10;9.80;99.90
54680;DHT22;40578;53.178;5.846;2023-11-21T12:02:37;9.70;99.90
54680;DHT22;40578;53.178;5.846;2023-11-21T12:05:14;9.70;99.90
54680;DHT22;40578;53.178;5.846;2023-11-21T12:08:01;9.80;99.90
54680;DHT22;40578;53.178;5.846;2023-11-21T12:10:29;10.00;99.90
54680;DHT22;40578;53.178;5.846;2023-11-21T12:12:55;9.80;99.90
54680;DHT22;40578;53.178;5.846;2023-11-21T12:15:22;9.80;99.90
54680;DHT22;40578;53.178;5.846;2023-11-21T12:17:48;9.80;99.90
54680;DHT22;40578;53.178;5.846;2023-11-21T12:20:23;9.90;99.90
54680;DHT22;40578;53.178;5.846;2023-11-21T12:22:51;9.90;99.90
54680;DHT22;40578;53.178;5.846;2023-11-21T12:25:24;10.50;99.90
54680;DHT22;40578;53.178;5.846;2023-11-21T12:27:54;9.90;99.90
54680;DHT22;40578;53.178;5.846;2023-11-21T12:30:21;10.00;99.90
54680;DHT22;40578;53.178;5.846;2023-11-21T12:32:51;10.00;99.90
54680;DHT22;40578;53.178;5.846;2023-11-21T12:35:18;9.90;99.90
54680;DHT22;40578;53.178;5.846;2023-11-21T12:37:48;9.90;99.90
54680;DHT22;40578;53.178;5.846;2023-11-21T12:40:15;9.90;99.90
54680;DHT22;40578;53.178;5.846;2023-11-21T12:42:47;9.80;99.90
54680;DHT22;40578;53.178;5.846;2023-11-21T12:48:04;9.60;99.90
54680;DHT22;40578;53.178;5.846;2023-11-21T12:50:34;9.60;99.90
54680;DHT22;40578;53.178;5.846;2023-11-21T12:55:31;9.70;99.90
54680;DHT22;40578;53.178;5.846;2023-11-21T12:57:58;9.80;99.90
54680;DHT22;40578;53.178;5.846;2023-11-21T13:00:33;9.80;99.90
54680;DHT22;40578;53.178;5.846;2023-11-21T13:03:04;9.80;99.90
54680;DHT22;40578;53.178;5.846;2023-11-21T13:05:34;9.80;99.90
54680;DHT22;40578;53.178;5.846;2023-11-21T13:08:02;9.90;99.90
54680;DHT22;40578;53.178;5.846;2023-11-21T13:10:30;9.90;99.90
54680;DHT22;40578;53.178;5.846;2023-11-21T13:13:00;9.90;99.90
54680;DHT22;40578;53.178;5.846;2023-11-21T13:15:29;9.80;99.90
54680;DHT22;40578;53.178;5.846;2023-11-21T13:17:57;9.80;99.90
54680;DHT22;40578;53.178;5.846;2023-11-21T13:20:26;9.80;99.90
54680;DHT22;40578;53.178;5.846;2023-11-21T13:22:54;9.80;99.90
54680;DHT22;40578;53.178;5.846;2023-11-21T13:25:29;9.80;99.90
54680;DHT22;40578;53.178;5.846;2023-11-21T13:27:58;9.90;99.90
54680;DHT22;40578;53.178;5.846;2023-11-21T13:30:27;9.90;99.90
54680;DHT22;40578;53.178;5.846;2023-11-21T13:33:03;9.80;99.90
54680;DHT22;40578;53.178;5.846;2023-11-21T13:35:32;9.90;99.90
54680;DHT22;40578;53.178;5.846;2023-11-21T13:38:13;9.90;99.90
54680;DHT22;40578;53.178;5.846;2023-11-21T13:40:41;9.80;99.90
54680;DHT22;40578;53.178;5.846;2023-11-21T13:43:12;9.80;99.90
54680;DHT22;40578;53.178;5.846;2023-11-21T13:45:39;9.80;99.90
54680;DHT22;40578;53.178;5.846;2023-11-21T13:48:06;9.80;99.90
54680;DHT22;40578;53.178;5.846;2023-11-21T13:50:39;10.40;99.90
54680;DHT22;40578;53.178;5.846;2023-11-21T13:53:10;9.80;99.90
54680;DHT22;40578;53.178;5.846;2023-11-21T13:55:47;9.80;99.90
54680;DHT22;40578;53.178;5.846;2023-11-21T13:58:13;9.70;99.90
54680;DHT22;40578;53.178;5.846;2023-11-21T14:00:45;9.70;99.90
54680;DHT22;40578;53.178;5.846;2023-11-21T14:03:14;9.70;99.90
54680;DHT22;40578;53.178;5.846;2023-11-21T14:05:46;9.70;99.90
54680;DHT22;40578;53.178;5.846;2023-11-21T14:08:19;9.60;99.90
54680;DHT22;40578;53.178;5.846;2023-11-21T14:10:47;9.60;99.90
54680;DHT22;40578;53.178;5.846;2023-11-21T14:13:23;9.50;99.90
54680;DHT22;40578;53.178;5.846;2023-11-21T14:15:50;9.50;99.90
54680;DHT22;40578;53.178;5.846;2023-11-21T14:18:23;9.50;99.90
54680;DHT22;40578;53.178;5.846;2023-11-21T14:20:56;9.50;99.90
54680;DHT22;40578;53.178;5.846;2023-11-21T14:23:21;9.40;99.90
54680;DHT22;40578;53.178;5.846;2023-11-21T14:25:48;9.40;99.90
54680;DHT22;40578;53.178;5.846;2023-11-21T14:28:15;10.30;99.90
54680;DHT22;40578;53.178;5.846;2023-11-21T14:30:41;9.30;99.90
54680;DHT22;40578;53.178;5.846;2023-11-21T14:33:08;9.90;99.90
54680;DHT22;40578;53.178;5.846;2023-11-21T14:35:35;9.10;99.90
54680;DHT22;40578;53.178;5.846;2023-11-21T14:38:02;9.10;99.90
54680;DHT22;40578;53.178;5.846;2023-11-21T14:40:31;9.10;99.90
54680;DHT22;40578;53.178;5.846;2023-11-21T14:43:08;9.10;99.90
54680;DHT22;40578;53.178;5.846;2023-11-21T14:45:33;8.90;99.90
54680;DHT22;40578;53.178;5.846;2023-11-21T14:48:00;8.90;99.90
54680;DHT22;40578;53.178;5.846;2023-11-21T14:50:40;8.70;99.90
54680;DHT22;40578;53.178;5.846;2023-11-21T14:53:06;8.70;99.90
54680;DHT22;40578;53.178;5.846;2023-11-21T14:55:33;8.20;99.90
54680;DHT22;40578;53.178;5.846;2023-11-21T14:58:18;8.60;99.90
54680;DHT22;40578;53.178;5.846;2023-11-21T15:00:56;8.50;99.90
54680;DHT22;40578;53.178;5.846;2023-11-21T15:03:27;8.50;99.90
54680;DHT22;40578;53.178;5.846;2023-11-21T15:05:56;8.50;99.90
54680;DHT22;40578;53.178;5.846;2023-11-21T15:08:22;8.40;99.90
54680;DHT22;40578;53.178;5.846;2023-11-21T15:10:57;8.40;99.90
54680;DHT22;40578;53.178;5.846;2023-11-21T15:13:23;8.90;99.90
54680;DHT22;40578;53.178;5.846;2023-11-21T15:15:51;8.30;99.90
54680;DHT22;40578;53.178;5.846;2023-11-21T15:18:20;8.40;99.90
54680;DHT22;40578;53.178;5.846;2023-11-21T15:20:46;8.40;99.90
54680;DHT22;40578;53.178;5.846;2023-11-21T15:23:12;8.40;99.90
54680;DHT22;40578;53.178;5.846;2023-11-21T15:25:42;8.50;99.90
54680;DHT22;40578;53.178;5.846;2023-11-21T15:28:08;8.60;99.90
54680;DHT22;40578;53.178;5.846;2023-11-21T15:30:33;8.60;99.90
54680;DHT22;40578;53.178;5.846;2023-11-21T15:33:00;8.60;99.90
54680;DHT22;40578;53.178;5.846;2023-11-21T15:35:26;8.60;99.90
54680;DHT22;40578;53.178;5.846;2023-11-21T15:37:54;8.50;99.90
54680;DHT22;40578;53.178;5.846;2023-11-21T15:40:23;8.50;99.90
54680;DHT22;40578;53.178;5.846;2023-11-21T15:42:49;8.50;99.90
54680;DHT22;40578;53.178;5.846;2023-11-21T15:45:15;8.40;99.90
54680;DHT22;40578;53.178;5.846;2023-11-21T15:47:44;8.40;99.90
54680;DHT22;40578;53.178;5.846;2023-11-21T15:50:10;8.30;99.90
54680;DHT22;40578;53.178;5.846;2023-11-21T15:52:36;8.20;99.90
54680;DHT22;40578;53.178;5.846;2023-11-21T15:55:02;8.20;99.90
54680;DHT22;40578;53.178;5.846;2023-11-21T15:57:28;8.10;99.90
54680;DHT22;40578;53.178;5.846;2023-11-21T15:59:54;8.00;99.90